To NAV CANADA Home Page Login to a new session Search on AWWS site Feedback and Comments Disclaimer Vers la page française équivalente Tips FAQ What's new on the site To the Forecasts and Observations / NOTAM section To "File a Flight Plan" website Publications and other links Update of the User's profile FIC Telephone Numbers My Weather Data Folder Route Weather Data Regional Weather Data Local Weather Data To the Forecasts and Observations / NOTAM section
Request Generated 09/30/2016 at 06:34:13 UTC . Weather information available at that time is displayed.

METAR/TAF

TORONTO/BUTTONVILLE MUNICIPAL/ON    

METAR CYKZ 300600Z 09010KT 15SM BKN130 15/10 A3034 RMK AC7 SLP279=
METAR CYKZ 300500Z 08008KT 15SM FEW035 BKN140 15/10 A3035 RMK SC1AS6
SLP282=
METAR CYKZ 300400Z 07009KT 15SM OVC074 15/10 A3036 RMK AC8 SLP285=

TAF CYKZ 300538Z 3006/3018 08010KT P6SM BKN030 OVC100
FM301500 08012G22KT P6SM FEW030 BKN100
RMK NXT FCST BY 301200Z=
Your time UTC time
Weather data provided by Environment Canada and NAV CANADA